sensor_id;sensor_type;location;lat;lon;timestamp;pressure;altitude;pressure_sealevel;temperature;humidity
69027;BME280;56080;47.594;19.116;2023-04-28T00:05:02;100788;;;5.58;80.76
69027;BME280;56080;47.594;19.116;2023-04-28T00:15:02;100787;;;5.36;80.62
69027;BME280;56080;47.594;19.116;2023-04-28T00:25:03;100783;;;5.44;80.44
69027;BME280;56080;47.594;19.116;2023-04-28T00:35:03;100784;;;5.34;79.59
69027;BME280;56080;47.594;19.116;2023-04-28T00:45:06;100785;;;4.29;83.66
69027;BME280;56080;47.594;19.116;2023-04-28T00:55:04;100787;;;5.03;78.82
69027;BME280;56080;47.594;19.116;2023-04-28T01:05:04;100802;;;5.09;77.68
69027;BME280;56080;47.594;19.116;2023-04-28T01:15:04;100799;;;5.31;77.45
69027;BME280;56080;47.594;19.116;2023-04-28T01:25:04;100801;;;5.10;77.52
69027;BME280;56080;47.594;19.116;2023-04-28T01:35:05;100804;;;5.23;77.40
69027;BME280;56080;47.594;19.116;2023-04-28T01:45:05;100798;;;5.18;77.40
69027;BME280;56080;47.594;19.116;2023-04-28T01:55:05;100791;;;5.02;76.98
69027;BME280;56080;47.594;19.116;2023-04-28T02:05:06;100796;;;4.75;79.16
69027;BME280;56080;47.594;19.116;2023-04-28T02:15:06;100807;;;4.84;78.71
69027;BME280;56080;47.594;19.116;2023-04-28T02:25:07;100805;;;4.43;79.14
69027;BME280;56080;47.594;19.116;2023-04-28T02:35:06;100812;;;4.01;82.75
69027;BME280;56080;47.594;19.116;2023-04-28T02:55:07;100808;;;3.94;81.03
69027;BME280;56080;47.594;19.116;2023-04-28T03:05:07;100803;;;3.81;82.46
69027;BME280;56080;47.594;19.116;2023-04-28T03:15:08;100818;;;3.64;82.73
69027;BME280;56080;47.594;19.116;2023-04-28T03:25:08;100816;;;3.91;81.73
69027;BME280;56080;47.594;19.116;2023-04-28T03:35:08;100822;;;3.59;81.89
69027;BME280;56080;47.594;19.116;2023-04-28T03:45:08;100827;;;3.82;82.29
69027;BME280;56080;47.594;19.116;2023-04-28T03:55:09;100826;;;3.76;82.73
69027;BME280;56080;47.594;19.116;2023-04-28T04:05:09;100840;;;4.03;82.04
69027;BME280;56080;47.594;19.116;2023-04-28T04:15:09;100840;;;4.38;81.70
69027;BME280;56080;47.594;19.116;2023-04-28T04:25:09;100845;;;4.53;82.06
69027;BME280;56080;47.594;19.116;2023-04-28T04:35:09;100853;;;4.67;83.91
69027;BME280;56080;47.594;19.116;2023-04-28T04:45:10;100847;;;4.93;82.68
69027;BME280;56080;47.594;19.116;2023-04-28T04:55:10;100855;;;5.23;81.44
69027;BME280;56080;47.594;19.116;2023-04-28T05:05:20;100849;;;5.59;80.27
69027;BME280;56080;47.594;19.116;2023-04-28T05:25:11;100863;;;8.97;65.87
69027;BME280;56080;47.594;19.116;2023-04-28T05:35:12;100871;;;10.20;58.63
69027;BME280;56080;47.594;19.116;2023-04-28T05:45:12;100877;;;10.64;56.31
69027;BME280;56080;47.594;19.116;2023-04-28T05:55:13;100868;;;10.91;53.20
69027;BME280;56080;47.594;19.116;2023-04-28T06:05:15;100870;;;11.87;52.16
69027;BME280;56080;47.594;19.116;2023-04-28T06:15:15;100873;;;11.98;48.43
69027;BME280;56080;47.594;19.116;2023-04-28T06:25:16;100879;;;10.90;49.06
69027;BME280;56080;47.594;19.116;2023-04-28T06:35:16;100885;;;10.91;52.00
69027;BME280;56080;47.594;19.116;2023-04-28T06:45:18;100880;;;11.34;50.53
69027;BME280;56080;47.594;19.116;2023-04-28T06:55:18;100884;;;11.84;49.26
69027;BME280;56080;47.594;19.116;2023-04-28T07:05:20;100884;;;12.13;45.97
69027;BME280;56080;47.594;19.116;2023-04-28T07:15:20;100863;;;13.30;42.69
69027;BME280;56080;47.594;19.116;2023-04-28T07:25:22;100859;;;13.11;42.90
69027;BME280;56080;47.594;19.116;2023-04-28T07:35:23;100853;;;12.49;44.20
69027;BME280;56080;47.594;19.116;2023-04-28T07:45:23;100855;;;12.83;44.62
69027;BME280;56080;47.594;19.116;2023-04-28T07:55:24;100846;;;13.75;41.71
69027;BME280;56080;47.594;19.116;2023-04-28T08:05:26;100829;;;13.53;40.75
69027;BME280;56080;47.594;19.116;2023-04-28T08:15:27;100805;;;16.31;36.30
69027;BME280;56080;47.594;19.116;2023-04-28T08:25:28;100796;;;16.20;35.04
69027;BME280;56080;47.594;19.116;2023-04-28T08:35:29;100790;;;16.02;35.75
69027;BME280;56080;47.594;19.116;2023-04-28T08:45:31;100774;;;15.92;33.34
69027;BME280;56080;47.594;19.116;2023-04-28T08:55:32;100762;;;16.15;31.97
69027;BME280;56080;47.594;19.116;2023-04-28T09:05:35;100761;;;16.13;32.71
69027;BME280;56080;47.594;19.116;2023-04-28T09:15:36;100755;;;16.27;32.64
69027;BME280;56080;47.594;19.116;2023-04-28T09:25:35;100757;;;15.57;31.83
69027;BME280;56080;47.594;19.116;2023-04-28T09:35:38;100742;;;15.75;31.41
69027;BME280;56080;47.594;19.116;2023-04-28T09:45:41;100738;;;16.12;31.50
69027;BME280;56080;47.594;19.116;2023-04-28T09:55:40;100727;;;15.64;32.29
69027;BME280;56080;47.594;19.116;2023-04-28T10:05:40;100708;;;15.98;32.32
69027;BME280;56080;47.594;19.116;2023-04-28T10:15:41;100700;;;15.42;33.17
69027;BME280;56080;47.594;19.116;2023-04-28T10:25:42;100682;;;16.28;32.28
69027;BME280;56080;47.594;19.116;2023-04-28T10:35:44;100656;;;16.07;32.17
69027;BME280;56080;47.594;19.116;2023-04-28T10:55:46;100637;;;16.12;32.81
69027;BME280;56080;47.594;19.116;2023-04-28T11:16:00;100606;;;16.25;32.96
69027;BME280;56080;47.594;19.116;2023-04-28T11:25:52;100602;;;16.14;33.04
69027;BME280;56080;47.594;19.116;2023-04-28T11:35:50;100598;;;15.89;33.42
69027;BME280;56080;47.594;19.116;2023-04-28T11:45:51;100608;;;16.29;33.52
69027;BME280;56080;47.594;19.116;2023-04-28T11:56:03;100603;;;15.81;34.09
69027;BME280;56080;47.594;19.116;2023-04-28T12:05:53;100580;;;16.43;33.98
69027;BME280;56080;47.594;19.116;2023-04-28T12:15:55;100571;;;16.69;34.25
69027;BME280;56080;47.594;19.116;2023-04-28T12:25:56;100562;;;16.25;34.52
69027;BME280;56080;47.594;19.116;2023-04-28T12:35:57;100560;;;16.34;34.56
69027;BME280;56080;47.594;19.116;2023-04-28T12:45:59;100536;;;16.49;34.73
69027;BME280;56080;47.594;19.116;2023-04-28T12:55:59;100508;;;16.37;35.39
69027;BME280;56080;47.594;19.116;2023-04-28T13:06:00;100484;;;16.38;35.55
69027;BME280;56080;47.594;19.116;2023-04-28T13:16:02;100472;;;16.38;36.30
69027;BME280;56080;47.594;19.116;2023-04-28T13:26:03;100469;;;16.59;36.21
69027;BME280;56080;47.594;19.116;2023-04-28T13:36:04;100477;;;16.28;36.23
69027;BME280;56080;47.594;19.116;2023-04-28T13:46:07;100470;;;16.50;36.42
69027;BME280;56080;47.594;19.116;2023-04-28T13:56:06;100444;;;16.29;36.25
69027;BME280;56080;47.594;19.116;2023-04-28T14:06:07;100427;;;16.33;36.50
69027;BME280;56080;47.594;19.116;2023-04-28T14:16:08;100423;;;16.47;36.50
69027;BME280;56080;47.594;19.116;2023-04-28T14:26:09;100422;;;16.30;36.64
69027;BME280;56080;47.594;19.116;2023-04-28T14:36:11;100417;;;16.46;36.28
69027;BME280;56080;47.594;19.116;2023-04-28T14:46:12;100412;;;16.05;36.69
69027;BME280;56080;47.594;19.116;2023-04-28T14:56:19;100410;;;16.22;37.20
69027;BME280;56080;47.594;19.116;2023-04-28T15:06:14;100390;;;16.19;37.26
69027;BME280;56080;47.594;19.116;2023-04-28T15:16:15;100382;;;16.27;37.40
69027;BME280;56080;47.594;19.116;2023-04-28T15:26:16;100373;;;16.21;37.76
69027;BME280;56080;47.594;19.116;2023-04-28T15:36:19;100369;;;16.31;37.87
69027;BME280;56080;47.594;19.116;2023-04-28T15:46:20;100362;;;16.18;38.27
69027;BME280;56080;47.594;19.116;2023-04-28T15:56:21;100346;;;16.18;38.28
69027;BME280;56080;47.594;19.116;2023-04-28T16:06:21;100339;;;16.16;39.00
69027;BME280;56080;47.594;19.116;2023-04-28T16:16:24;100325;;;16.10;39.36
69027;BME280;56080;47.594;19.116;2023-04-28T16:26:24;100335;;;16.06;39.85
69027;BME280;56080;47.594;19.116;2023-04-28T16:36:30;100318;;;16.03;40.11
69027;BME280;56080;47.594;19.116;2023-04-28T16:46:26;100304;;;16.03;40.65
69027;BME280;56080;47.594;19.116;2023-04-28T16:56:28;100290;;;15.95;41.16
69027;BME280;56080;47.594;19.116;2023-04-28T17:06:29;100276;;;15.94;41.28
69027;BME280;56080;47.594;19.116;2023-04-28T17:16:31;100257;;;15.85;41.56
69027;BME280;56080;47.594;19.116;2023-04-28T17:26:31;100251;;;15.82;42.05
69027;BME280;56080;47.594;19.116;2023-04-28T17:36:32;100265;;;15.79;42.31
69027;BME280;56080;47.594;19.116;2023-04-28T17:46:33;100246;;;15.69;42.73
69027;BME280;56080;47.594;19.116;2023-04-28T17:56:36;100247;;;15.66;43.12
69027;BME280;56080;47.594;19.116;2023-04-28T18:06:36;100256;;;15.55;43.85
69027;BME280;56080;47.594;19.116;2023-04-28T18:16:37;100270;;;15.61;44.37
69027;BME280;56080;47.594;19.116;2023-04-28T18:26:38;100277;;;15.56;45.87
69027;BME280;56080;47.594;19.116;2023-04-28T18:36:39;100272;;;15.35;48.31
69027;BME280;56080;47.594;19.116;2023-04-28T18:46:41;100270;;;15.22;51.71
69027;BME280;56080;47.594;19.116;2023-04-28T18:56:43;100283;;;15.22;58.56
69027;BME280;56080;47.594;19.116;2023-04-28T19:06:43;100277;;;15.05;61.49
69027;BME280;56080;47.594;19.116;2023-04-28T19:16:44;100287;;;14.80;67.29
69027;BME280;56080;47.594;19.116;2023-04-28T19:26:46;100292;;;14.67;67.88
69027;BME280;56080;47.594;19.116;2023-04-28T19:46:48;100294;;;14.46;71.78
69027;BME280;56080;47.594;19.116;2023-04-28T19:56:49;100288;;;14.41;73.64
69027;BME280;56080;47.594;19.116;2023-04-28T20:06:50;100267;;;13.88;74.15
69027;BME280;56080;47.594;19.116;2023-04-28T20:16:51;100259;;;13.79;73.80
69027;BME280;56080;47.594;19.116;2023-04-28T20:26:53;100255;;;13.79;74.75
69027;BME280;56080;47.594;19.116;2023-04-28T20:36:53;100253;;;13.64;74.09
69027;BME280;56080;47.594;19.116;2023-04-28T20:46:54;100260;;;13.66;70.96
69027;BME280;56080;47.594;19.116;2023-04-28T20:56:55;100256;;;13.84;72.37
69027;BME280;56080;47.594;19.116;2023-04-28T21:06:56;100263;;;13.86;74.43
69027;BME280;56080;47.594;19.116;2023-04-28T21:16:57;100245;;;13.62;76.04
69027;BME280;56080;47.594;19.116;2023-04-28T21:26:59;100240;;;13.58;73.70
69027;BME280;56080;47.594;19.116;2023-04-28T21:37:00;100248;;;13.63;74.28
69027;BME280;56080;47.594;19.116;2023-04-28T21:47:00;100254;;;13.57;74.64
69027;BME280;56080;47.594;19.116;2023-04-28T21:57:01;100256;;;13.55;76.26
69027;BME280;56080;47.594;19.116;2023-04-28T22:07:04;100256;;;13.22;78.40
69027;BME280;56080;47.594;19.116;2023-04-28T22:17:03;100256;;;13.30;79.98
69027;BME280;56080;47.594;19.116;2023-04-28T22:27:04;100254;;;13.00;82.54
69027;BME280;56080;47.594;19.116;2023-04-28T22:37:04;100236;;;12.89;83.31
69027;BME280;56080;47.594;19.116;2023-04-28T22:57:07;100239;;;12.52;87.97
69027;BME280;56080;47.594;19.116;2023-04-28T23:07:07;100231;;;12.76;88.08
69027;BME280;56080;47.594;19.116;2023-04-28T23:17:08;100223;;;12.74;87.26
69027;BME280;56080;47.594;19.116;2023-04-28T23:27:10;100223;;;12.44;90.11
69027;BME280;56080;47.594;19.116;2023-04-28T23:37:11;100209;;;12.34;90.97
69027;BME280;56080;47.594;19.116;2023-04-28T23:47:11;100207;;;12.05;90.59
69027;BME280;56080;47.594;19.116;2023-04-28T23:57:12;100194;;;12.02;91.58
